Alcester, SD (57001)

11:58 PM CDT on September 20, 2014 (GMT -0500)
Campingfarmer | Change Station
CLOSE
Current Station
Personal Weather Station
Location: Rock Valley, IA
Elevation: 1253 ft
Nearby Weather Stations

Elev 1253 ft 43.19 °N, 96.39 °W | Updated 13 minutes ago

Clear
Clear
54.7 °F
Feels Like 54.7 °F
N
1.6
Wind Variable Wind from West
Gusts 1.6 mph

Today
High -- | Low -- °F
--% Chance of Precip.
Yesterday
High -- | Low -- °F
Precip. -- in
7:11 AM 7:27 PM
Waning Crescent, 8% visible
Pressure 30.05 in
Visibility 10.0 miles
Clouds Clear
Dew Point 48 °F
Humidity 79%
Rainfall 0.01 in
Snow Depth 0 in
UV 0 out of 12
Pollen 5.30 out of 12
Air Quality Not available.
Flu Activity Not available.
METAR KORC 210435Z AUTO 31005KT 10SM CLR 13/08 A3005 RMK AO2

More Conditions Fewer Conditions

Pressure 30.05 in
Visibility 10.0 miles
Clouds Clear
Dew Point 48 °F
Humidity 79%
Rainfall 0.01 in
Snow Depth 0 in
UV 0 out of 12
Pollen 5.30 out of 12
Air Quality Not available.
Flu Activity Not available.
METAR KORC 210435Z AUTO 31005KT 10SM CLR 13/08 A3005 RMK AO2

More Conditions Fewer Conditions

10-Day Weather Forecast

Almanac

Astronomy

Sep. 20, 2014 Rise Set
Actual Time 7:11 AM CDT 7:27 PM CDT
Civil Twilight 6:43 AM CDT 7:55 PM CDT
Nautical Twilight 6:09 AM CDT 8:28 PM CDT
Astronomical Twilight 5:35 AM CDT 9:03 PM CDT
Moon 3:47 AM CDT (9/20) 5:34 PM CDT (9/20)
Length of Visible Light 13h 12m
Length of Day
12h 15m
Tomorrow will be 2m 54s shorter.
Waning Crescent, 8% of the Moon is Illuminated
Sep 21
Waning Crescent
Sep 24
New
Oct 1
First Quarter
Oct 8
Full
Oct 15
Last Quarter

Yesterday's Extremes

State Highs State Lows

Community

WunderPhotos

Upload Photos

1,755,086 photos uploaded!

Nearby

Snow Depth

Station Depth Elevation
Blind Park 0 in 6890 ft

Earthquake Activity

City Distance Mag. Time & Date
No recent earthquake activity has been reported nearby.
Minimum magnitude displayed is 2.5.

Coastal Water Temperatures

Place Temperature
No Stations Reporting

Nearby Weather Stations